createdAt,value
2018-05-13T00:00:40.316Z,99923
2018-05-13T00:03:16.610Z,99916
2018-05-13T00:05:53.140Z,99920
2018-05-13T00:08:29.676Z,99916
2018-05-13T00:11:05.668Z,99922
2018-05-13T00:13:42.088Z,99918
2018-05-13T00:16:18.745Z,99918
2018-05-13T00:18:55.743Z,99913
2018-05-13T00:21:32.457Z,99921
2018-05-13T00:24:09.204Z,99914
2018-05-13T00:26:45.529Z,99910
2018-05-13T00:29:22.438Z,99906
2018-05-13T00:31:58.623Z,99910
2018-05-13T00:34:35.469Z,99906
2018-05-13T00:37:12.767Z,99904
2018-05-13T00:39:49.138Z,99903
2018-05-13T00:42:26.109Z,99898
2018-05-13T00:45:03.349Z,99894
2018-05-13T00:47:39.716Z,99898
2018-05-13T00:50:17.015Z,99899
2018-05-13T00:52:54.397Z,99894
2018-05-13T00:55:31.239Z,99893
2018-05-13T00:58:09.244Z,99890
2018-05-13T01:00:46.579Z,99886
2018-05-13T01:03:23.812Z,99890
2018-05-13T01:06:01.674Z,99890
2018-05-13T01:08:38.361Z,99880
2018-05-13T01:11:15.020Z,99887
2018-05-13T01:13:52.410Z,99884
2018-05-13T01:16:28.960Z,99881
2018-05-13T01:19:04.805Z,99875
2018-05-13T01:21:42.006Z,99879
2018-05-13T01:24:18.680Z,99874
2018-05-13T01:26:55.997Z,99869
2018-05-13T01:29:32.954Z,99866
2018-05-13T01:35:18.186Z,99866
2018-05-13T01:37:55.532Z,99865
2018-05-13T01:40:31.848Z,99868
2018-05-13T01:43:09.171Z,99874
2018-05-13T01:45:47.209Z,99877
2018-05-13T01:48:23.522Z,99869
2018-05-13T01:50:59.934Z,99867
2018-05-13T01:53:37.718Z,99866
2018-05-13T01:56:14.654Z,99868
2018-05-13T01:58:51.667Z,99863
2018-05-13T02:01:29.015Z,99861
2018-05-13T02:04:05.633Z,99866
2018-05-13T02:06:42.622Z,99868
2018-05-13T02:09:19.884Z,99859
2018-05-13T02:11:57.200Z,99869
2018-05-13T02:14:35.097Z,99860
2018-05-13T02:17:12.068Z,99860
2018-05-13T02:19:50.697Z,99860
2018-05-13T02:22:29.397Z,99861
2018-05-13T02:25:06.127Z,99855
2018-05-13T02:27:44.714Z,99854
2018-05-13T02:30:21.889Z,99862
2018-05-13T02:32:59.156Z,99855
2018-05-13T02:35:37.085Z,99850
2018-05-13T02:38:15.639Z,99847
2018-05-13T02:40:52.118Z,99845
2018-05-13T02:43:28.745Z,99846
2018-05-13T02:46:04.946Z,99852
2018-05-13T02:48:42.265Z,99851
2018-05-13T02:51:19.591Z,99845
2018-05-13T02:53:57.285Z,99849
2018-05-13T02:56:34.353Z,99845
2018-05-13T02:59:10.968Z,99848
2018-05-13T03:01:48.273Z,99843
2018-05-13T03:04:24.784Z,99847
2018-05-13T03:07:02.173Z,99847
2018-05-13T03:09:38.642Z,99846
2018-05-13T03:12:15.468Z,99846
2018-05-13T03:14:53.004Z,99846
2018-05-13T03:17:30.448Z,99840
2018-05-13T03:20:07.891Z,99841
2018-05-13T03:22:45.106Z,99843
2018-05-13T03:25:22.151Z,99845
2018-05-13T03:27:58.819Z,99840
2018-05-13T03:30:35.801Z,99844
2018-05-13T03:33:13.704Z,99853
2018-05-13T03:35:52.018Z,99851
2018-05-13T03:38:28.295Z,99850
2018-05-13T03:41:04.969Z,99852
2018-05-13T03:43:42.006Z,99852
2018-05-13T03:46:19.854Z,99848
2018-05-13T03:48:56.194Z,99854
2018-05-13T03:51:33.488Z,99853
2018-05-13T03:54:10.474Z,99851
2018-05-13T03:56:47.136Z,99851
2018-05-13T03:59:25.038Z,99856
2018-05-13T04:02:01.596Z,99853
2018-05-13T04:04:40.825Z,99853
2018-05-13T04:07:17.523Z,99853
2018-05-13T04:10:13.717Z,99856
2018-05-13T04:16:04.504Z,99846
2018-05-13T04:18:41.365Z,99848
2018-05-13T04:21:18.294Z,99848
2018-05-13T04:23:56.256Z,99849
2018-05-13T04:26:33.477Z,99844
2018-05-13T04:29:12.821Z,99841
2018-05-13T04:31:50.521Z,99844
2018-05-13T04:34:28.044Z,99847
2018-05-13T04:37:06.390Z,99848
2018-05-13T04:39:43.350Z,99842
2018-05-13T04:42:20.670Z,99844
2018-05-13T04:44:58.588Z,99844
2018-05-13T04:47:36.487Z,99839
2018-05-13T04:50:14.985Z,99834
2018-05-13T04:52:52.844Z,99837
2018-05-13T04:55:30.440Z,99834
2018-05-13T04:58:07.921Z,99836
2018-05-13T05:00:44.851Z,99834
2018-05-13T05:03:24.141Z,99829
2018-05-13T05:06:00.864Z,99832
2018-05-13T05:08:39.324Z,99836
2018-05-13T05:11:15.996Z,99835
2018-05-13T05:13:53.289Z,99835
2018-05-13T05:16:30.561Z,99837
2018-05-13T05:19:07.255Z,99837
2018-05-13T05:21:45.580Z,99831
2018-05-13T05:24:23.038Z,99829
2018-05-13T05:27:00.645Z,99832
2018-05-13T05:29:37.323Z,99825
2018-05-13T05:32:13.497Z,99832
2018-05-13T05:34:50.677Z,99827
2018-05-13T05:37:28.519Z,99830
2018-05-13T05:40:09.278Z,99826
2018-05-13T05:42:46.194Z,99824
2018-05-13T05:45:23.056Z,99821
2018-05-13T05:48:01.814Z,99826
2018-05-13T05:50:38.990Z,99824
2018-05-13T05:53:17.539Z,99822
2018-05-13T05:55:54.928Z,99819
2018-05-13T05:58:31.478Z,99818
2018-05-13T06:01:08.972Z,99820
2018-05-13T06:03:46.945Z,99817
2018-05-13T06:06:23.656Z,99809
2018-05-13T06:09:01.828Z,99812
2018-05-13T06:11:38.669Z,99810
2018-05-13T06:14:17.710Z,99813
2018-05-13T06:16:55.220Z,99810
2018-05-13T06:19:31.328Z,99813
2018-05-13T06:22:10.545Z,99809
2018-05-13T06:24:48.418Z,99807
2018-05-13T06:27:25.691Z,99808
2018-05-13T06:30:02.333Z,99801
2018-05-13T06:32:39.321Z,99798
2018-05-13T06:35:15.921Z,99795
2018-05-13T06:37:53.704Z,99795
2018-05-13T06:40:32.092Z,99792
2018-05-13T06:43:09.645Z,99788
2018-05-13T06:45:46.637Z,99783
2018-05-13T06:48:23.354Z,99778
2018-05-13T06:51:02.454Z,99774
2018-05-13T06:53:39.793Z,99771
2018-05-13T06:56:16.883Z,99764
2018-05-13T06:58:53.999Z,99760
2018-05-13T07:01:32.609Z,99762
2018-05-13T07:04:08.917Z,99757
2018-05-13T07:06:45.562Z,99763
2018-05-13T07:09:22.546Z,99761
2018-05-13T07:11:59.021Z,99756
2018-05-13T07:14:36.197Z,99755
2018-05-13T07:17:12.325Z,99753
2018-05-13T07:19:49.585Z,99756
2018-05-13T07:22:27.989Z,99757
2018-05-13T07:25:04.941Z,99754
2018-05-13T07:27:42.593Z,99750
2018-05-13T07:30:20.368Z,99750
2018-05-13T07:32:57.893Z,99752
2018-05-13T07:35:35.110Z,99735
2018-05-13T07:38:13.034Z,99745
2018-05-13T07:40:49.953Z,99742
2018-05-13T07:43:31.140Z,99744
2018-05-13T07:46:09.250Z,99738
2018-05-13T07:48:47.249Z,99737
2018-05-13T07:51:24.337Z,99737
2018-05-13T07:54:01.308Z,99733
2018-05-13T07:56:38.286Z,99736
2018-05-13T07:59:16.234Z,99721
2018-05-13T08:01:53.229Z,99730
2018-05-13T08:04:30.819Z,99721
2018-05-13T08:07:09.349Z,99719
2018-05-13T08:09:47.151Z,99718
2018-05-13T08:12:25.702Z,99718
2018-05-13T08:15:04.203Z,99717
2018-05-13T08:17:41.516Z,99714
2018-05-13T08:20:18.949Z,99714
2018-05-13T08:22:57.305Z,99706
2018-05-13T08:25:35.233Z,99710
2018-05-13T08:28:12.321Z,99705
2018-05-13T08:30:49.482Z,99708
2018-05-13T08:33:27.074Z,99704
2018-05-13T08:36:03.838Z,99700
2018-05-13T08:38:40.704Z,99692
2018-05-13T08:41:18.751Z,99689
2018-05-13T08:43:55.918Z,99690
2018-05-13T08:46:33.474Z,99696
2018-05-13T08:49:11.724Z,99692
2018-05-13T08:51:49.290Z,99686
2018-05-13T08:54:26.889Z,99690
2018-05-13T08:57:03.553Z,99691
2018-05-13T08:59:40.769Z,99684
2018-05-13T09:02:18.474Z,99684
2018-05-13T09:04:55.384Z,99682
2018-05-13T09:07:34.350Z,99680
2018-05-13T09:10:11.881Z,99674
2018-05-13T09:12:50.576Z,99666
2018-05-13T09:15:28.890Z,99675
2018-05-13T09:18:07.017Z,99667
2018-05-13T09:20:44.343Z,99657
2018-05-13T09:23:22.232Z,99667
2018-05-13T09:25:58.774Z,99658
2018-05-13T09:28:35.663Z,99661
2018-05-13T09:31:12.900Z,99657
2018-05-13T09:33:50.187Z,99662
2018-05-13T09:36:26.657Z,99649
2018-05-13T09:39:05.781Z,99655
2018-05-13T09:41:44.674Z,99656
2018-05-13T09:44:22.333Z,99642
2018-05-13T09:46:58.986Z,99648
2018-05-13T09:49:36.079Z,99635
2018-05-13T09:52:12.893Z,99631
2018-05-13T09:54:49.720Z,99609
2018-05-13T09:57:27.935Z,99626
2018-05-13T10:00:04.637Z,99633
2018-05-13T10:02:41.534Z,99628
2018-05-13T10:05:21.640Z,99625
2018-05-13T10:07:59.113Z,99625
2018-05-13T10:10:36.409Z,99629
2018-05-13T10:13:13.727Z,99621
2018-05-13T10:15:51.686Z,99625
2018-05-13T10:18:29.315Z,99629
2018-05-13T10:21:07.129Z,99628
2018-05-13T10:23:44.069Z,99625
2018-05-13T10:26:20.056Z,99624
2018-05-13T10:28:56.956Z,99623
2018-05-13T10:31:35.094Z,99622
2018-05-13T10:34:13.336Z,99622
2018-05-13T10:36:51.239Z,99620
2018-05-13T10:39:27.840Z,99616
2018-05-13T10:42:05.566Z,99615
2018-05-13T10:44:44.158Z,99617
2018-05-13T10:47:21.123Z,99611
2018-05-13T10:49:57.973Z,99617
2018-05-13T10:52:34.774Z,99605
2018-05-13T10:55:11.633Z,99609
2018-05-13T10:57:48.969Z,99603
2018-05-13T11:00:25.279Z,99605
2018-05-13T11:03:02.170Z,99603
2018-05-13T11:05:40.598Z,99603
2018-05-13T11:08:18.456Z,99603
2018-05-13T11:10:55.257Z,99599
2018-05-13T11:13:32.246Z,99603
2018-05-13T11:16:09.314Z,99598
2018-05-13T11:18:46.869Z,99593
2018-05-13T11:21:24.497Z,99582
2018-05-13T11:24:03.520Z,99582
2018-05-13T11:26:41.254Z,99585
2018-05-13T11:29:17.869Z,99585
2018-05-13T11:31:54.842Z,99582
2018-05-13T11:34:31.563Z,99584
2018-05-13T11:37:08.531Z,99574
2018-05-13T11:39:45.584Z,99573
2018-05-13T11:42:23.490Z,99570
2018-05-13T11:45:01.605Z,99572
2018-05-13T11:47:38.091Z,99566
2018-05-13T11:50:15.936Z,99564
2018-05-13T11:52:52.810Z,99566
2018-05-13T11:55:30.574Z,99573
2018-05-13T11:58:08.775Z,99560
2018-05-13T12:00:45.966Z,99561
2018-05-13T12:03:23.313Z,99564
2018-05-13T12:06:01.098Z,99561
2018-05-13T12:08:39.458Z,99559
2018-05-13T12:11:16.140Z,99551
2018-05-13T12:13:53.909Z,99558
2018-05-13T12:16:31.192Z,99543
2018-05-13T12:19:07.933Z,99556
2018-05-13T12:21:45.914Z,99545
2018-05-13T12:24:23.783Z,99556
2018-05-13T12:27:01.884Z,99546
2018-05-13T12:29:39.857Z,99543
2018-05-13T12:32:17.724Z,99542
2018-05-13T12:34:56.122Z,99543
2018-05-13T12:37:33.701Z,99539
2018-05-13T12:40:10.657Z,99540
2018-05-13T12:42:47.372Z,99548
2018-05-13T12:45:25.033Z,99539
2018-05-13T12:48:01.502Z,99539
2018-05-13T12:50:39.742Z,99536
2018-05-13T12:53:16.589Z,99531
2018-05-13T12:55:52.922Z,99527
2018-05-13T12:58:29.606Z,99534
2018-05-13T13:01:07.727Z,99531
2018-05-13T13:03:44.413Z,99525
2018-05-13T13:06:21.497Z,99522
2018-05-13T13:08:59.594Z,99522
2018-05-13T13:11:36.681Z,99508
2018-05-13T13:14:13.634Z,99513
2018-05-13T13:16:50.329Z,99508
2018-05-13T13:19:27.621Z,99501
2018-05-13T13:22:06.134Z,99490
2018-05-13T13:24:43.696Z,99485
2018-05-13T13:27:20.712Z,99483
2018-05-13T13:29:57.886Z,99494
2018-05-13T13:32:34.521Z,99496
2018-05-13T13:35:11.007Z,99495
2018-05-13T13:37:47.591Z,99501
2018-05-13T13:40:24.672Z,99490
2018-05-13T13:43:02.278Z,99493
2018-05-13T13:45:38.511Z,99477
2018-05-13T13:48:16.383Z,99480
2018-05-13T13:50:53.825Z,99492
2018-05-13T13:53:30.614Z,99479
2018-05-13T13:56:07.999Z,99471
2018-05-13T13:58:45.096Z,99466
2018-05-13T14:01:22.677Z,99460
2018-05-13T14:03:59.969Z,99463
2018-05-13T14:06:36.736Z,99456
2018-05-13T14:09:14.601Z,99457
2018-05-13T14:11:52.434Z,99440
2018-05-13T14:14:28.907Z,99436
2018-05-13T14:17:07.377Z,99436
2018-05-13T14:19:45.454Z,99448
2018-05-13T14:22:23.097Z,99438
2018-05-13T14:25:00.217Z,99443
2018-05-13T14:27:37.450Z,99439
2018-05-13T14:30:16.626Z,99435
2018-05-13T14:32:54.417Z,99432
2018-05-13T14:35:32.455Z,99435
2018-05-13T14:38:09.258Z,99431
2018-05-13T14:40:46.687Z,99430
2018-05-13T14:43:24.553Z,99433
2018-05-13T14:46:01.181Z,99427
2018-05-13T14:48:37.860Z,99429
2018-05-13T14:51:14.571Z,99420
2018-05-13T14:53:52.608Z,99422
2018-05-13T14:56:31.944Z,99418
2018-05-13T14:59:10.366Z,99422
2018-05-13T15:01:47.847Z,99417
2018-05-13T15:04:24.367Z,99420
2018-05-13T15:07:01.390Z,99415
2018-05-13T15:09:39.681Z,99412
2018-05-13T15:12:17.717Z,99406
2018-05-13T15:14:56.201Z,99408
2018-05-13T15:17:33.513Z,99421
2018-05-13T15:20:10.493Z,99415
2018-05-13T15:22:47.437Z,99408
2018-05-13T15:25:23.701Z,99398
2018-05-13T15:28:01.442Z,99401
2018-05-13T15:30:38.737Z,99405
2018-05-13T15:33:16.637Z,99402
2018-05-13T15:35:53.610Z,99400
2018-05-13T15:38:30.593Z,99393
2018-05-13T15:41:07.577Z,99410
2018-05-13T15:43:44.587Z,99411
2018-05-13T15:46:20.888Z,99409
2018-05-13T15:48:57.633Z,99418
2018-05-13T15:51:35.471Z,99409
2018-05-13T15:54:12.017Z,99405
2018-05-13T15:56:49.752Z,99408
2018-05-13T15:59:26.092Z,99402
2018-05-13T16:02:02.763Z,99396
2018-05-13T16:04:41.231Z,99398
2018-05-13T16:07:19.533Z,99399
2018-05-13T16:09:56.193Z,99400
2018-05-13T16:12:34.733Z,99402
2018-05-13T16:15:12.266Z,99409
2018-05-13T16:17:49.980Z,99401
2018-05-13T16:20:27.570Z,99391
2018-05-13T16:23:05.037Z,99402
2018-05-13T16:25:43.360Z,99397
2018-05-13T16:28:19.740Z,99398
2018-05-13T16:30:57.305Z,99395
2018-05-13T16:33:35.322Z,99398
2018-05-13T16:36:11.477Z,99395
2018-05-13T16:38:49.721Z,99394
2018-05-13T16:41:26.687Z,99388
2018-05-13T16:44:04.637Z,99393
2018-05-13T16:46:41.263Z,99403
2018-05-13T16:49:18.843Z,99400
2018-05-13T16:51:55.256Z,99399
2018-05-13T16:54:32.424Z,99405
2018-05-13T16:57:10.241Z,99407
2018-05-13T16:59:47.068Z,99406
2018-05-13T17:02:23.827Z,99405
2018-05-13T17:05:01.645Z,99401
2018-05-13T17:07:37.806Z,99399
2018-05-13T17:10:15.602Z,99395
2018-05-13T17:12:53.023Z,99397
2018-05-13T17:15:31.632Z,99403
2018-05-13T17:18:09.197Z,99399
2018-05-13T17:20:45.155Z,99405
2018-05-13T17:23:22.275Z,99405
2018-05-13T17:25:59.061Z,99402
2018-05-13T17:28:36.043Z,99402
2018-05-13T17:31:12.692Z,99408
2018-05-13T17:33:51.317Z,99402
2018-05-13T17:36:28.308Z,99406
2018-05-13T17:39:03.926Z,99407
2018-05-13T17:41:40.865Z,99409
2018-05-13T17:44:17.584Z,99411
2018-05-13T17:46:54.257Z,99403
2018-05-13T17:49:31.864Z,99406
2018-05-13T17:52:10.484Z,99407
2018-05-13T17:54:48.636Z,99406
2018-05-13T17:57:29.940Z,99405
2018-05-13T18:00:06.481Z,99409
2018-05-13T18:02:45.354Z,99410
2018-05-13T18:05:23.669Z,99403
2018-05-13T18:08:02.119Z,99399
2018-05-13T18:10:38.437Z,99406
2018-05-13T18:13:14.811Z,99404
2018-05-13T18:15:51.768Z,99406
2018-05-13T18:18:29.834Z,99408
2018-05-13T18:21:06.864Z,99411
2018-05-13T18:23:44.007Z,99406
2018-05-13T18:26:21.781Z,99409
2018-05-13T18:28:58.239Z,99417
2018-05-13T18:31:36.160Z,99416
2018-05-13T18:34:13.105Z,99415
2018-05-13T18:36:50.803Z,99418
2018-05-13T18:39:27.233Z,99424
2018-05-13T18:42:03.548Z,99423
2018-05-13T18:44:40.761Z,99431
2018-05-13T18:47:18.932Z,99433
2018-05-13T18:49:56.283Z,99430
2018-05-13T18:52:34.260Z,99441
2018-05-13T18:55:11.332Z,99440
2018-05-13T18:57:49.099Z,99442
2018-05-13T19:00:25.720Z,99443
2018-05-13T19:03:03.625Z,99442
2018-05-13T19:05:40.179Z,99448
2018-05-13T19:08:17.271Z,99450
2018-05-13T19:10:54.995Z,99452
2018-05-13T19:13:34.240Z,99454
2018-05-13T19:16:11.218Z,99454
2018-05-13T19:18:47.481Z,99460
2018-05-13T19:21:24.193Z,99467
2018-05-13T19:24:01.304Z,99476
2018-05-13T19:26:37.432Z,99471
2018-05-13T19:29:16.759Z,99476
2018-05-13T19:31:53.486Z,99483
2018-05-13T19:34:30.000Z,99483
2018-05-13T19:37:08.014Z,99487
2018-05-13T19:39:44.533Z,99491
2018-05-13T19:42:22.561Z,99498
2018-05-13T19:44:59.010Z,99500
2018-05-13T19:47:35.182Z,99504
2018-05-13T19:50:13.532Z,99509
2018-05-13T19:52:49.860Z,99517
2018-05-13T19:55:26.184Z,99517
2018-05-13T19:58:05.783Z,99520
2018-05-13T20:00:42.751Z,99526
2018-05-13T20:03:21.772Z,99532
2018-05-13T20:05:57.961Z,99525
2018-05-13T20:08:35.077Z,99529
2018-05-13T20:11:12.027Z,99536
2018-05-13T20:13:48.010Z,99538
2018-05-13T20:16:24.533Z,99540
2018-05-13T20:19:02.133Z,99539
2018-05-13T20:21:39.108Z,99537
2018-05-13T20:24:16.206Z,99536
2018-05-13T20:26:53.735Z,99541
2018-05-13T20:29:32.197Z,99538
2018-05-13T20:32:07.925Z,99550
2018-05-13T20:34:45.222Z,99551
2018-05-13T20:37:22.998Z,99555
2018-05-13T20:40:00.249Z,99547
2018-05-13T20:42:36.878Z,99549
2018-05-13T20:45:14.306Z,99555
2018-05-13T20:47:51.106Z,99552
2018-05-13T20:50:28.802Z,99552
2018-05-13T20:53:05.759Z,99556
2018-05-13T20:55:42.964Z,99558
2018-05-13T20:58:20.617Z,99560
2018-05-13T21:00:58.369Z,99565
2018-05-13T21:03:35.110Z,99565
2018-05-13T21:06:12.081Z,99568
2018-05-13T21:08:49.355Z,99567
2018-05-13T21:11:27.565Z,99566
2018-05-13T21:14:04.365Z,99571
2018-05-13T21:16:42.222Z,99569
2018-05-13T21:19:18.534Z,99568
2018-05-13T21:21:56.155Z,99571
2018-05-13T21:24:34.337Z,99575
2018-05-13T21:27:11.629Z,99578
2018-05-13T21:29:48.277Z,99573
2018-05-13T21:32:25.584Z,99577
2018-05-13T21:35:02.818Z,99579
2018-05-13T21:37:39.509Z,99579
2018-05-13T21:40:16.522Z,99582
2018-05-13T21:42:53.813Z,99575
2018-05-13T21:45:31.711Z,99581
2018-05-13T21:48:08.208Z,99581
2018-05-13T21:50:47.453Z,99578
2018-05-13T21:53:24.449Z,99582
2018-05-13T21:56:01.154Z,99583
2018-05-13T21:58:39.411Z,99583
2018-05-13T22:01:16.362Z,99581
2018-05-13T22:03:53.602Z,99583
2018-05-13T22:06:31.510Z,99579
2018-05-13T22:09:09.401Z,99586
2018-05-13T22:11:46.743Z,99584
2018-05-13T22:14:25.327Z,99583
2018-05-13T22:17:02.788Z,99587
2018-05-13T22:19:39.424Z,99580
2018-05-13T22:22:15.936Z,99586
2018-05-13T22:24:52.507Z,99586
2018-05-13T22:27:28.885Z,99589
2018-05-13T22:30:07.112Z,99587
2018-05-13T22:32:44.085Z,99581
2018-05-13T22:35:21.045Z,99588
2018-05-13T22:37:57.858Z,99580
2018-05-13T22:40:35.600Z,99581
2018-05-13T22:43:15.403Z,99586
2018-05-13T22:45:52.655Z,99585
2018-05-13T22:48:30.089Z,99588
2018-05-13T22:51:08.260Z,99588
2018-05-13T22:53:44.566Z,99592
2018-05-13T22:56:21.502Z,99595
2018-05-13T22:58:59.009Z,99592
2018-05-13T23:01:35.789Z,99595
2018-05-13T23:04:12.207Z,99592
2018-05-13T23:06:50.144Z,99590
2018-05-13T23:09:27.328Z,99595
2018-05-13T23:12:05.026Z,99591
2018-05-13T23:14:42.169Z,99593
2018-05-13T23:17:18.976Z,99590
2018-05-13T23:19:56.137Z,99596
2018-05-13T23:22:37.936Z,99596
2018-05-13T23:25:14.338Z,99599
2018-05-13T23:27:51.071Z,99598
2018-05-13T23:30:27.672Z,99602
2018-05-13T23:33:05.810Z,99598
2018-05-13T23:35:43.764Z,99595
2018-05-13T23:38:21.150Z,99601
2018-05-13T23:40:57.821Z,99591
2018-05-13T23:43:35.389Z,99599
2018-05-13T23:46:13.009Z,99589
2018-05-13T23:48:51.193Z,99596
2018-05-13T23:51:27.686Z,99589
2018-05-13T23:54:04.688Z,99590
2018-05-13T23:56:41.313Z,99592
2018-05-13T23:59:18.616Z,99593
